Time;durP1;ratioP1;P1;durP2;ratioP2;P2;SDS_P1;SDS_P2;PMS_P1;PMS_P2;Temp;Humidity;BMP_temperature;BMP_pressure;BME280_temperature;BME280_humidity;BME280_pressure;Samples;Min_cycle;Max_cycle;Signal;HPM_P1;HPM_P2
2023/04/02 00:00:35;;;;;;;14.07;5.50;;;7.30;99.90;;;;;;6308298;22;20014;-90
2023/04/02 00:03:03;;;;;;;11.00;4.78;;;7.30;99.90;;;;;;6281775;22;20015;-89
2023/04/02 00:05:49;;;;;;;9.73;4.38;;;7.30;99.90;;;;;;6308712;22;20011;-93
2023/04/02 00:08:24;;;;;;;13.23;5.15;;;7.20;99.90;;;;;;6280911;22;20144;-90
2023/04/02 00:11:09;;;;;;;11.85;5.35;;;7.20;99.90;;;;;;6281585;22;20022;-90
2023/04/02 00:13:40;;;;;;;11.60;4.70;;;7.20;99.90;;;;;;6307991;22;20012;-90
2023/04/02 00:16:10;;;;;;;8.80;4.65;;;7.20;99.90;;;;;;6308046;22;20030;-90
2023/04/02 00:18:41;;;;;;;12.48;5.07;;;7.10;99.90;;;;;;6308647;22;20019;-90
2023/04/02 00:21:22;;;;;;;10.38;5.05;;;7.10;99.90;;;;;;6280375;22;20098;-91
2023/04/02 00:23:47;;;;;;;9.15;4.88;;;7.10;99.90;;;;;;6281188;22;20016;-90
2023/04/02 00:26:35;;;;;;;9.40;4.82;;;7.10;99.90;;;;;;6280905;22;20064;-90
2023/04/02 00:29:02;;;;;;;11.88;4.65;;;7.00;99.90;;;;;;6308280;22;20130;-90
2023/04/02 00:31:29;;;;;;;12.60;5.25;;;7.00;99.90;;;;;;6280572;22;20073;-90
2023/04/02 00:33:56;;;;;;;9.82;4.88;;;7.00;99.90;;;;;;6281236;22;20183;-90
2023/04/02 00:36:25;;;;;;;11.55;4.60;;;7.00;99.90;;;;;;6280414;22;20065;-89
2023/04/02 00:38:52;;;;;;;9.13;4.68;;;6.90;99.90;;;;;;6281226;22;20017;-89
2023/04/02 00:41:26;;;;;;;10.75;5.10;;;6.90;99.90;;;;;;6308235;22;20015;-89
2023/04/02 00:43:52;;;;;;;;;;;6.90;99.90;;;;;;6276123;22;20432;-90
2023/04/02 00:46:26;;;;;;;11.27;5.10;;;6.80;99.90;;;;;;6250314;22;19923;-90
2023/04/02 00:49:06;;;;;;;10.80;5.05;;;6.80;99.90;;;;;;6276946;22;20041;-90
2023/04/02 00:51:43;;;;;;;10.40;5.22;;;6.90;99.90;;;;;;6249876;22;20022;-90
2023/04/02 00:54:14;;;;;;;9.20;4.60;;;6.90;99.90;;;;;;6250692;22;20019;-89
2023/04/02 00:56:45;;;;;;;13.93;4.78;;;6.80;99.90;;;;;;6276949;22;20022;-90
2023/04/02 00:59:26;;;;;;;10.18;4.70;;;6.80;99.90;;;;;;6250031;22;20043;-89
2023/04/02 01:02:29;;;;;;;8.52;4.72;;;6.80;99.90;;;;;;6250378;22;20079;-90
2023/04/02 01:05:20;;;;;;;10.18;4.93;;;6.80;99.90;;;;;;6238872;22;20035;-90
2023/04/02 01:07:54;;;;;;;10.18;4.38;;;6.80;99.90;;;;;;6272560;22;20066;-91
2023/04/02 01:10:44;;;;;;;10.85;4.57;;;6.80;99.90;;;;;;6249988;22;20099;-90
2023/04/02 01:13:18;;;;;;;10.02;4.07;;;6.80;99.90;;;;;;6277064;22;20102;-90
2023/04/02 01:15:56;;;;;;;8.65;4.30;;;6.70;99.90;;;;;;6249963;22;20035;-89
2023/04/02 01:19:13;;;;;;;10.95;4.78;;;6.70;99.90;;;;;;6275905;22;20016;-89
2023/04/02 01:22:13;;;;;;;10.93;4.75;;;6.70;99.90;;;;;;6225747;22;20459;-89
2023/04/02 01:24:39;;;;;;;13.68;4.28;;;6.60;99.90;;;;;;6249988;22;20055;-90
2023/04/02 01:27:17;;;;;;;8.07;4.20;;;6.70;99.90;;;;;;6250230;22;20008;-91
2023/04/02 01:29:58;;;;;;;12.52;4.72;;;6.60;99.90;;;;;;6277804;22;20087;-90
2023/04/02 01:32:27;;;;;;;14.60;4.25;;;6.60;99.90;;;;;;6250149;22;20054;-90
2023/04/02 01:34:53;;;;;;;10.23;4.20;;;6.50;99.90;;;;;;6250633;22;20020;-91
2023/04/02 01:37:43;;;;;;;12.57;3.92;;;6.50;99.90;;;;;;6250398;22;20094;-90
2023/04/02 01:40:32;;;;;;;9.60;4.25;;;6.50;99.90;;;;;;6250654;22;20023;-91
2023/04/02 01:43:10;;;;;;;8.60;3.47;;;6.40;99.90;;;;;;6278451;22;20066;-92
2023/04/02 01:45:37;;;;;;;9.70;3.75;;;6.40;99.90;;;;;;6293581;22;20024;-93
2023/04/02 01:48:16;;;;;;;9.80;4.00;;;6.40;99.90;;;;;;6282036;22;20098;-92
2023/04/02 01:50:44;;;;;;;9.07;4.13;;;6.40;99.90;;;;;;6281727;22;20016;-92
2023/04/02 01:53:14;;;;;;;9.30;3.80;;;6.30;99.90;;;;;;6280896;22;20343;-91
2023/04/02 01:55:45;;;;;;;9.95;4.22;;;6.30;99.90;;;;;;6308937;22;20015;-92
2023/04/02 01:58:13;;;;;;;8.80;4.03;;;6.30;99.90;;;;;;6281902;22;20015;-92
2023/04/02 02:00:48;;;;;;;10.63;3.33;;;6.30;99.90;;;;;;6280855;22;20077;-91
2023/04/02 02:03:15;;;;;;;6.72;3.25;;;6.20;99.90;;;;;;6308909;22;20308;-92
2023/04/02 02:05:41;;;;;;;8.95;3.53;;;6.20;99.90;;;;;;6281145;22;20023;-92
2023/04/02 02:08:32;;;;;;;6.32;3.17;;;6.20;99.90;;;;;;6309191;22;20064;-92
2023/04/02 02:10:58;;;;;;;12.98;3.22;;;6.10;99.90;;;;;;6311245;22;20022;-92
2023/04/02 02:13:24;;;;;;;7.45;3.45;;;6.00;99.90;;;;;;6282899;22;20098;-92
2023/04/02 02:15:50;;;;;;;8.50;3.38;;;6.00;99.90;;;;;;6310879;22;20049;-92
2023/04/02 02:18:22;;;;;;;11.63;3.72;;;5.90;99.90;;;;;;6283143;22;20072;-91
2023/04/02 02:20:49;;;;;;;12.60;3.80;;;5.90;99.90;;;;;;6283273;22;20022;-93
2023/04/02 02:23:15;;;;;;;10.75;3.70;;;5.90;99.90;;;;;;6282929;22;20011;-92
2023/04/02 02:25:41;;;;;;;9.93;3.38;;;5.90;99.90;;;;;;6311159;22;20022;-91
2023/04/02 02:28:18;;;;;;;11.13;3.65;;;5.80;99.90;;;;;;6283067;22;20093;-92
2023/04/02 02:30:49;;;;;;;7.38;3.33;;;5.80;99.90;;;;;;6310584;22;20077;-91
2023/04/02 02:33:32;;;;;;;9.35;3.40;;;5.80;99.90;;;;;;6283360;22;20018;-92
2023/04/02 02:36:12;;;;;;;8.57;3.30;;;5.80;99.90;;;;;;6283387;22;20019;-91
2023/04/02 02:38:51;;;;;;;9.10;3.20;;;5.70;99.90;;;;;;6311115;22;20010;-92
2023/04/02 02:41:23;;;;;;;7.28;2.85;;;5.70;99.90;;;;;;6310350;22;20019;-91
2023/04/02 02:44:01;;;;;;;8.23;3.03;;;5.60;99.90;;;;;;6278865;22;20090;-92
2023/04/02 02:46:28;;;;;;;11.50;3.08;;;5.60;99.90;;;;;;6278949;22;20444;-92
2023/04/02 02:48:57;;;;;;;10.82;3.22;;;5.50;99.90;;;;;;6283054;22;20355;-92
2023/04/02 02:51:28;;;;;;;10.43;2.97;;;5.50;99.90;;;;;;6310283;22;20046;-90
2023/04/02 02:54:00;;;;;;;11.23;3.00;;;5.50;99.90;;;;;;6310348;22;20052;-91
2023/04/02 02:56:27;;;;;;;7.88;2.70;;;5.50;99.90;;;;;;6282178;22;20019;-93
2023/04/02 02:58:53;;;;;;;8.73;3.28;;;5.50;99.90;;;;;;6283115;22;20015;-93
2023/04/02 03:01:19;;;;;;;6.40;2.45;;;5.50;99.90;;;;;;6310329;22;20019;-92
2023/04/02 03:03:46;;;;;;;9.65;2.67;;;5.40;99.90;;;;;;6282903;22;20094;-92
2023/04/02 03:06:15;;;;;;;6.50;2.60;;;5.40;99.90;;;;;;6310136;22;20011;-93
2023/04/02 03:08:47;;;;;;;8.30;2.53;;;5.30;99.90;;;;;;6283042;22;20395;-91
2023/04/02 03:11:32;;;;;;;8.30;2.60;;;5.30;99.90;;;;;;6309262;22;20090;-92
2023/04/02 03:14:06;;;;;;;8.15;2.65;;;5.30;99.90;;;;;;6282960;22;20049;-92
2023/04/02 03:16:41;;;;;;;7.68;2.80;;;5.20;99.90;;;;;;6282397;22;20672;-92
2023/04/02 03:19:27;;;;;;;6.78;2.65;;;5.20;99.90;;;;;;6310153;22;20018;-92
2023/04/02 03:22:13;;;;;;;16.52;2.83;;;5.20;99.90;;;;;;6282756;22;20098;-91
2023/04/02 03:24:55;;;;;;;8.30;2.50;;;5.20;99.90;;;;;;6310316;22;20016;-92
2023/04/02 03:27:33;;;;;;;6.95;2.17;;;5.10;99.90;;;;;;6282514;22;20016;-90
2023/04/02 03:30:31;;;;;;;6.47;2.42;;;5.10;99.90;;;;;;6282942;22;20016;-92
2023/04/02 03:33:09;;;;;;;7.18;2.03;;;5.10;99.90;;;;;;6310004;22;20015;-91
2023/04/02 03:35:56;;;;;;;7.30;2.13;;;5.00;99.90;;;;;;6309910;22;20330;-91
2023/04/02 03:38:43;;;;;;;6.20;2.15;;;4.90;99.90;;;;;;6282219;22;20022;-92
2023/04/02 03:41:18;;;;;;;9.63;2.40;;;4.90;99.90;;;;;;6310090;22;20081;-91
2023/04/02 03:43:51;;;;;;;8.85;2.33;;;4.90;99.90;;;;;;6309718;22;20022;-92
2023/04/02 03:46:30;;;;;;;6.65;2.60;;;4.90;99.90;;;;;;6282101;22;20030;-91
2023/04/02 03:49:03;;;;;;;9.13;2.33;;;4.80;99.90;;;;;;6309776;22;20038;-91
2023/04/02 03:51:33;;;;;;;7.25;2.28;;;4.80;99.90;;;;;;6309378;22;20027;-91
2023/04/02 03:53:59;;;;;;;7.65;2.13;;;4.80;99.90;;;;;;6309738;22;20011;-89
2023/04/02 03:56:30;;;;;;;6.88;2.30;;;4.70;99.90;;;;;;6281965;22;20056;-91
2023/04/02 03:59:12;;;;;;;8.82;2.78;;;4.70;99.90;;;;;;6282065;22;20018;-90
2023/04/02 04:01:47;;;;;;;11.45;2.40;;;4.70;99.90;;;;;;6309355;22;20011;-91
2023/04/02 04:04:16;;;;;;;9.18;1.92;;;4.70;99.90;;;;;;6308942;22;20015;-90
2023/04/02 04:06:45;;;;;;;6.55;2.20;;;4.70;99.90;;;;;;6309339;22;20062;-90
2023/04/02 04:09:35;;;;;;;11.02;2.50;;;4.60;99.90;;;;;;6281417;22;20073;-91
2023/04/02 04:12:26;;;;;;;9.55;2.47;;;4.60;99.90;;;;;;6301580;22;20081;-91
2023/04/02 04:15:05;;;;;;;7.90;2.17;;;4.60;99.90;;;;;;6281473;22;20022;-90
2023/04/02 04:18:00;;;;;;;7.90;2.00;;;4.50;99.90;;;;;;6281967;22;20011;-91
2023/04/02 04:20:55;;;;;;;6.85;2.03;;;4.50;99.90;;;;;;6308841;22;20015;-89
2023/04/02 04:23:34;;;;;;;8.93;1.80;;;4.50;99.90;;;;;;6281924;22;20128;-91
2023/04/02 04:26:08;;;;;;;8.82;2.05;;;4.40;99.90;;;;;;6309457;22;20011;-91
2023/04/02 04:29:11;;;;;;;7.32;1.73;;;4.40;99.90;;;;;;6308971;22;20019;-91
2023/04/02 04:31:53;;;;;;;6.90;1.85;;;4.40;99.90;;;;;;6281795;22;20466;-91
2023/04/02 04:34:28;;;;;;;7.03;1.70;;;4.40;99.90;;;;;;6308745;22;20335;-91
2023/04/02 04:37:00;;;;;;;5.88;1.70;;;4.30;99.90;;;;;;6309260;22;20019;-91
2023/04/02 04:39:46;;;;;;;6.13;1.58;;;4.30;99.90;;;;;;6308848;22;20030;-90
2023/04/02 04:42:22;;;;;;;7.78;1.60;;;4.30;99.90;;;;;;6280780;22;20018;-91
2023/04/02 04:45:05;;;;;;;5.95;1.45;;;4.20;99.90;;;;;;6308060;22;20347;-90
2023/04/02 04:47:57;;;;;;;5.75;1.67;;;4.20;99.90;;;;;;6281509;22;20099;-92
2023/04/02 04:50:53;;;;;;;7.50;1.85;;;4.20;99.90;;;;;;6308179;22;20011;-90
2023/04/02 04:53:22;;;;;;;6.45;1.73;;;4.20;99.90;;;;;;6281947;22;20116;-91
2023/04/02 04:55:51;;;;;;;9.80;1.70;;;4.20;99.90;;;;;;6280994;22;20346;-91
2023/04/02 04:58:44;;;;;;;6.13;1.58;;;4.20;99.90;;;;;;6280835;22;20011;-90
2023/04/02 05:01:23;;;;;;;10.20;1.83;;;4.10;99.90;;;;;;6308310;22;20171;-91
2023/04/02 05:04:15;;;;;;;9.57;2.00;;;4.10;99.90;;;;;;6281094;22;20043;-91
2023/04/02 05:06:50;;;;;;;7.20;1.88;;;4.00;99.90;;;;;;6281169;22;20015;-90
2023/04/02 05:09:21;;;;;;;4.88;1.50;;;4.00;99.90;;;;;;6307681;22;20019;-90
2023/04/02 05:12:04;;;;;;;7.35;1.90;;;4.00;99.90;;;;;;6309240;22;20022;-91
2023/04/02 05:14:52;;;;;;;5.90;1.73;;;4.00;99.90;;;;;;6308830;22;20422;-90
2023/04/02 05:17:30;;;;;;;6.53;1.67;;;4.00;99.90;;;;;;6308231;22;20012;-90
2023/04/02 05:20:00;;;;;;;6.05;1.80;;;4.00;99.90;;;;;;6281816;22;20019;-92
2023/04/02 05:22:36;;;;;;;6.55;1.65;;;4.00;99.90;;;;;;6308733;22;20074;-90
2023/04/02 05:25:30;;;;;;;8.07;1.80;;;4.00;99.90;;;;;;6280938;22;20027;-90
2023/04/02 05:28:10;;;;;;;5.78;1.60;;;3.90;99.90;;;;;;6281340;22;20328;-91
2023/04/02 05:30:51;;;;;;;5.10;1.50;;;3.90;99.90;;;;;;6280988;22;20351;-91
2023/04/02 05:33:26;;;;;;;7.78;1.55;;;3.80;99.90;;;;;;6281089;22;20015;-93
2023/04/02 05:36:17;;;;;;;7.03;1.73;;;3.80;99.90;;;;;;6280715;22;20347;-92
2023/04/02 05:38:45;;;;;;;9.55;1.90;;;3.80;99.90;;;;;;6308466;22;20034;-91
2023/04/02 05:41:35;;;;;;;8.40;1.63;;;3.70;99.90;;;;;;6307920;22;20007;-93
2023/04/02 05:44:05;;;;;;;6.78;1.42;;;3.70;99.90;;;;;;6309780;22;20069;-92
2023/04/02 05:46:41;;;;;;;6.55;1.52;;;3.70;99.90;;;;;;6282432;22;20030;-92
2023/04/02 05:49:16;;;;;;;7.90;1.70;;;3.70;99.90;;;;;;6310526;22;20008;-92
2023/04/02 05:51:44;;;;;;;7.03;1.67;;;3.70;99.90;;;;;;6282928;22;20023;-92
2023/04/02 05:54:23;;;;;;;6.68;1.60;;;3.70;99.90;;;;;;6282874;22;20015;-91
2023/04/02 05:56:56;;;;;;;6.50;1.83;;;3.70;99.90;;;;;;6282758;22;20023;-91
2023/04/02 05:59:25;;;;;;;4.82;1.42;;;3.70;99.90;;;;;;6283445;22;20328;-91
2023/04/02 06:02:02;;;;;;;6.15;1.60;;;3.70;99.90;;;;;;6310284;22;20022;-91
2023/04/02 06:04:51;;;;;;;4.35;1.38;;;3.70;99.90;;;;;;6283069;22;20012;-91
2023/04/02 06:07:23;;;;;;;8.27;1.88;;;3.70;99.90;;;;;;6263877;22;20022;-91
2023/04/02 06:09:54;;;;;;;5.28;1.65;;;3.60;99.90;;;;;;6283201;22;20025;-91
2023/04/02 06:12:43;;;;;;;5.40;1.60;;;3.60;99.90;;;;;;6310133;22;20022;-92
2023/04/02 06:15:17;;;;;;;6.85;1.90;;;3.60;99.90;;;;;;6283008;22;20015;-90
2023/04/02 06:17:57;;;;;;;6.30;1.50;;;3.60;99.90;;;;;;6284335;22;20144;-91
2023/04/02 06:20:22;;;;;;;4.85;1.45;;;3.60;99.90;;;;;;6282521;22;20141;-90
2023/04/02 06:22:54;;;;;;;6.43;1.60;;;3.60;99.90;;;;;;6310224;22;20011;-90
2023/04/02 06:25:25;;;;;;;11.02;2.05;;;3.60;99.90;;;;;;6310183;22;20007;-92
2023/04/02 06:27:54;;;;;;;7.03;1.73;;;3.60;99.90;;;;;;6310353;22;20082;-93
2023/04/02 06:30:27;;;;;;;7.63;1.80;;;3.60;99.90;;;;;;6309962;22;20085;-93
2023/04/02 06:32:52;;;;;;;9.02;1.70;;;3.60;99.90;;;;;;6283529;22;20095;-94
2023/04/02 06:35:18;;;;;;;6.28;1.50;;;3.50;99.90;;;;;;6309332;22;20011;-93
2023/04/02 06:37:47;;;;;;;8.77;2.08;;;3.50;99.90;;;;;;6310577;22;20015;-93
2023/04/02 06:40:34;;;;;;;7.90;1.80;;;3.50;99.90;;;;;;6282572;22;20011;-93
2023/04/02 06:43:06;;;;;;;8.65;1.77;;;3.60;99.90;;;;;;6282417;22;20019;-92
2023/04/02 06:45:40;;;;;;;8.20;1.98;;;3.60;99.90;;;;;;6309028;22;20055;-94
2023/04/02 06:48:15;;;;;;;6.90;1.73;;;3.60;99.90;;;;;;6311065;22;20055;-93
2023/04/02 06:50:53;;;;;;;7.32;1.50;;;3.70;99.90;;;;;;6273507;22;20015;-94
2023/04/02 06:53:31;;;;;;;4.07;1.30;;;3.70;99.90;;;;;;6311697;22;20034;-91
2023/04/02 06:56:24;;;;;;;9.93;1.48;;;3.80;99.90;;;;;;6283151;22;20014;-95
2023/04/02 06:58:50;;;;;;;4.65;1.30;;;3.80;99.90;;;;;;6284251;22;20474;-94
2023/04/02 07:01:29;;;;;;;5.45;1.40;;;3.90;99.90;;;;;;6282216;22;20097;-89
2023/04/02 07:03:56;;;;;;;8.93;2.00;;;4.00;99.90;;;;;;6310898;22;20462;-92
2023/04/02 07:06:22;;;;;;;7.57;1.60;;;4.10;99.90;;;;;;6310684;22;20016;-91
2023/04/02 07:08:48;;;;;;;6.15;1.40;;;4.10;99.90;;;;;;6283274;22;20026;-93
2023/04/02 07:11:20;;;;;;;6.25;1.60;;;4.20;99.90;;;;;;6282571;22;20019;-94
2023/04/02 07:13:47;;;;;;;7.45;1.73;;;4.20;99.90;;;;;;6311434;22;20204;-94
2023/04/02 07:16:19;;;;;;;7.53;1.90;;;4.30;99.90;;;;;;6283795;22;20015;-95
2023/04/02 07:18:45;;;;;;;8.18;1.60;;;4.40;99.90;;;;;;6311626;22;20011;-93
2023/04/02 07:21:11;;;;;;;9.25;1.63;;;4.40;99.90;;;;;;6283587;22;20072;-94
2023/04/02 07:23:37;;;;;;;8.80;1.85;;;4.50;99.90;;;;;;6283900;22;20016;-95
2023/04/02 07:26:04;;;;;;;5.80;1.30;;;4.60;99.90;;;;;;6282924;22;20015;-89
2023/04/02 07:28:30;;;;;;;5.80;1.30;;;4.70;99.90;;;;;;6311855;22;20577;-94
2023/04/02 07:30:56;;;;;;;4.97;1.45;;;4.70;99.90;;;;;;6311209;22;20019;-96
2023/04/02 07:33:27;;;;;;;7.05;1.55;;;4.80;99.90;;;;;;6311168;22;20327;-95
2023/04/02 07:35:55;;;;;;;6.38;1.58;;;4.80;99.90;;;;;;6311690;22;20098;-92
2023/04/02 07:38:21;;;;;;;7.68;1.70;;;4.90;99.90;;;;;;6284336;22;20011;-93
2023/04/02 07:40:46;;;;;;;8.00;1.50;;;4.90;99.90;;;;;;6270945;22;20046;-95
2023/04/02 07:43:13;;;;;;;6.05;1.40;;;5.00;99.90;;;;;;6311232;22;20008;-95
2023/04/02 07:45:39;;;;;;;5.80;1.17;;;5.10;99.90;;;;;;6283800;22;20046;-94
2023/04/02 07:48:13;;;;;;;6.93;1.35;;;5.10;99.90;;;;;;6310520;22;20469;-96
2023/04/02 07:50:39;;;;;;;6.50;1.50;;;5.20;99.90;;;;;;6283069;22;20026;-94
2023/04/02 07:53:07;;;;;;;6.38;1.58;;;5.30;99.90;;;;;;6283178;22;20375;-93
2023/04/02 07:55:33;;;;;;;6.55;1.63;;;5.30;99.90;;;;;;6283099;22;20022;-94
2023/04/02 07:57:58;;;;;;;5.60;1.33;;;5.40;99.90;;;;;;6310327;22;20327;-91
2023/04/02 08:00:26;;;;;;;6.28;1.25;;;5.50;99.90;;;;;;6309841;22;20095;-93
2023/04/02 08:02:52;;;;;;;5.38;1.50;;;5.60;99.90;;;;;;6284101;22;20021;-93
2023/04/02 08:05:18;;;;;;;6.82;1.50;;;5.60;99.90;;;;;;6307674;22;20086;-93
2023/04/02 08:07:54;;;;;;;6.40;1.60;;;5.70;99.90;;;;;;6282214;22;20015;-92
2023/04/02 08:10:21;;;;;;;6.65;1.65;;;5.70;99.90;;;;;;6309620;22;20019;-94
2023/04/02 08:12:46;;;;;;;8.18;1.63;;;5.80;99.90;;;;;;6282582;22;20447;-93
2023/04/02 08:15:14;;;;;;;6.10;1.60;;;5.80;99.90;;;;;;6282123;22;20018;-92
2023/04/02 08:17:40;;;;;;;8.07;1.50;;;5.80;99.90;;;;;;6309316;22;20435;-92
2023/04/02 08:20:06;;;;;;;6.97;1.70;;;5.80;99.90;;;;;;6308496;22;20099;-92
2023/04/02 08:22:32;;;;;;;6.38;1.40;;;5.90;99.90;;;;;;6281851;22;20003;-94
2023/04/02 08:24:58;;;;;;;4.80;1.60;;;5.90;99.90;;;;;;6309590;22;20019;-89
2023/04/02 08:27:25;;;;;;;7.00;1.70;;;5.90;99.90;;;;;;6279560;22;20011;-87
2023/04/02 08:29:50;;;;;;;8.48;1.70;;;6.00;99.90;;;;;;6309147;22;20018;-90
2023/04/02 08:32:16;;;;;;;7.82;1.55;;;6.00;99.90;;;;;;6281938;22;20007;-90
2023/04/02 08:34:43;;;;;;;8.23;1.60;;;6.10;99.90;;;;;;6280933;22;20019;-93
2023/04/02 08:37:12;;;;;;;8.10;1.45;;;6.10;99.90;;;;;;6282543;22;20012;-94
2023/04/02 08:39:38;;;;;;;9.02;1.83;;;6.20;99.90;;;;;;6310032;22;20015;-94
2023/04/02 08:42:28;;;;;;;6.57;1.80;;;6.30;99.90;;;;;;6281791;22;20004;-89
2023/04/02 08:45:21;;;;;;;6.53;1.90;;;6.40;99.90;;;;;;6282019;22;20408;-93
2023/04/02 08:47:49;;;;;;;4.32;1.08;;;6.50;99.90;;;;;;6308564;22;20011;-94
2023/04/02 08:50:52;;;;;;;7.55;1.55;;;6.60;99.90;;;;;;6284546;22;20023;-93
2023/04/02 08:53:26;;;;;;;6.38;1.67;;;6.60;99.90;;;;;;6243473;22;20015;-93
2023/04/02 08:56:16;;;;;;;5.93;1.27;;;6.70;99.90;;;;;;6309536;22;20022;-95
2023/04/02 08:58:52;;;;;;;6.82;1.52;;;6.80;99.90;;;;;;6310294;22;20022;-95
2023/04/02 09:01:41;;;;;;;6.28;1.48;;;6.80;99.90;;;;;;6309559;22;20014;-93
2023/04/02 09:04:17;;;;;;;4.20;1.33;;;6.90;99.90;;;;;;6282961;22;20023;-95
2023/04/02 09:06:44;;;;;;;9.00;1.50;;;7.00;99.90;;;;;;6283902;22;20015;-92
2023/04/02 09:09:12;;;;;;;8.13;1.25;;;7.00;99.90;;;;;;6284131;22;20015;-96
2023/04/02 09:12:00;;;;;;;5.47;1.67;;;7.10;99.90;;;;;;6311588;22;20073;-96
2023/04/02 09:14:49;;;;;;;7.95;1.35;;;7.10;99.90;;;;;;6285287;22;20383;-95
2023/04/02 09:17:19;;;;;;;7.20;1.52;;;7.20;99.90;;;;;;6289432;22;20019;-96
2023/04/02 09:20:00;;;;;;;10.07;1.67;;;7.30;99.90;;;;;;6312552;22;20467;-96
2023/04/02 09:22:31;;;;;;;9.70;1.50;;;7.30;99.90;;;;;;6314005;22;20018;-96
2023/04/02 09:24:59;;;;;;;8.73;1.40;;;7.40;99.90;;;;;;6287173;22;20343;-96
2023/04/02 09:27:31;;;;;;;5.35;1.40;;;7.40;99.90;;;;;;6287318;22;20033;-95
2023/04/02 09:30:20;;;;;;;7.35;1.55;;;7.40;99.90;;;;;;6315586;22;20022;-95
2023/04/02 09:32:54;;;;;;;4.68;1.40;;;7.50;99.90;;;;;;6287190;22;20523;-96
2023/04/02 09:35:22;;;;;;;6.07;1.58;;;7.60;99.90;;;;;;6286276;22;20478;-96
2023/04/02 09:38:20;;;;;;;6.43;1.70;;;7.60;99.90;;;;;;6285185;22;20011;-93
2023/04/02 09:41:06;;;;;;;6.93;1.50;;;7.70;99.90;;;;;;6283525;22;20054;-91
2023/04/02 09:43:37;;;;;;;5.45;1.40;;;7.80;99.90;;;;;;6282493;22;20015;-91
2023/04/02 09:46:11;;;;;;;8.65;1.67;;;7.90;99.90;;;;;;6283078;22;20050;-90
2023/04/02 09:48:45;;;;;;;5.78;1.50;;;8.00;99.90;;;;;;6281753;22;20015;-90
2023/04/02 09:51:15;;;;;;;;;;;8.10;99.90;;;;;;6281523;22;20015;-90
2023/04/02 09:53:47;;;;;;;4.57;1.35;;;8.10;99.90;;;;;;6282411;22;19922;-89
2023/04/02 09:56:21;;;;;;;7.60;1.80;;;8.20;99.90;;;;;;6281548;22;20332;-89
2023/04/02 09:59:15;;;;;;;5.07;1.30;;;8.20;99.90;;;;;;6281366;22;20019;-90
2023/04/02 10:01:49;;;;;;;7.75;1.63;;;8.40;99.90;;;;;;6309322;22;20007;-89
2023/04/02 10:04:35;;;;;;;5.05;1.33;;;8.40;99.90;;;;;;6281654;22;20015;-92
2023/04/02 10:07:01;;;;;;;4.78;1.52;;;8.50;99.90;;;;;;6262337;22;20015;-92
2023/04/02 10:09:29;;;;;;;8.80;1.45;;;8.60;99.90;;;;;;6310085;22;20015;-90
2023/04/02 10:11:56;;;;;;;6.32;1.40;;;8.70;99.90;;;;;;6280858;22;20068;-92
2023/04/02 10:14:30;;;;;;;5.68;1.50;;;8.70;99.90;;;;;;6281198;22;20336;-89
2023/04/02 10:17:00;;;;;;;5.72;1.40;;;8.80;99.90;;;;;;6309211;22;20058;-90
2023/04/02 10:19:28;;;;;;;5.68;1.20;;;8.80;99.90;;;;;;6281257;22;20069;-91
2023/04/02 10:21:56;;;;;;;5.15;1.20;;;8.90;99.90;;;;;;6282470;22;20496;-89
2023/04/02 10:24:26;;;;;;;6.90;1.27;;;9.00;99.90;;;;;;6309177;22;20026;-89
2023/04/02 10:27:16;;;;;;;5.75;1.35;;;9.10;99.90;;;;;;6281106;22;20018;-91
2023/04/02 10:30:01;;;;;;;5.22;1.48;;;9.10;99.90;;;;;;6281974;22;20026;-94
2023/04/02 10:32:31;;;;;;;5.50;1.50;;;9.20;99.90;;;;;;6283268;22;20015;-94
2023/04/02 10:35:04;;;;;;;4.88;1.17;;;9.20;99.90;;;;;;6283885;22;20455;-94
2023/04/02 10:37:45;;;;;;;4.90;1.30;;;9.30;99.90;;;;;;6283746;22;20526;-94
2023/04/02 10:40:11;;;;;;;5.53;1.30;;;9.30;99.90;;;;;;6312443;22;20073;-93
2023/04/02 10:42:49;;;;;;;6.18;1.40;;;9.40;99.90;;;;;;6314006;22;20015;-94
2023/04/02 10:45:23;;;;;;;5.63;1.65;;;9.50;99.90;;;;;;6285004;22;20015;-94
2023/04/02 10:48:15;;;;;;;5.72;1.30;;;9.50;99.90;;;;;;6311301;22;20019;-93
2023/04/02 10:51:05;;;;;;;7.68;1.38;;;9.60;99.90;;;;;;6311057;22;20011;-92
2023/04/02 10:53:52;;;;;;;4.97;1.30;;;9.70;99.90;;;;;;6309046;22;20011;-90
2023/04/02 10:56:20;;;;;;;3.67;1.10;;;9.80;99.90;;;;;;6275957;22;20023;-91
2023/04/02 10:58:54;;;;;;;6.68;1.40;;;9.80;99.90;;;;;;6309279;22;20080;-89
2023/04/02 11:01:27;;;;;;;5.55;1.52;;;9.90;99.90;;;;;;6281343;22;20015;-91
2023/04/02 11:04:04;;;;;;;8.45;1.35;;;9.90;99.90;;;;;;6283196;22;20042;-90
2023/04/02 11:06:52;;;;;;;8.60;1.88;;;10.00;99.90;;;;;;6281655;22;20031;-90
2023/04/02 11:09:25;;;;;;;4.70;1.20;;;10.00;99.90;;;;;;6246607;22;20321;-92
2023/04/02 11:11:56;;;;;;;6.38;1.40;;;10.10;99.90;;;;;;6309413;22;20017;-90
2023/04/02 11:14:30;;;;;;;6.22;1.55;;;10.20;99.90;;;;;;6309694;22;20043;-90
2023/04/02 11:17:01;;;;;;;7.97;1.73;;;10.20;99.90;;;;;;6308974;22;20020;-91
2023/04/02 11:19:32;;;;;;;5.53;1.13;;;10.30;99.90;;;;;;6281915;22;20082;-89
2023/04/02 11:22:12;;;;;;;5.30;1.38;;;10.40;99.90;;;;;;6281989;22;20560;-90
2023/04/02 11:24:44;;;;;;;3.47;1.15;;;10.40;99.90;;;;;;6282863;22;20081;-90
2023/04/02 11:27:10;;;;;;;5.28;1.63;;;10.50;99.90;;;;;;6283182;22;20085;-92
2023/04/02 11:29:52;;;;;;;5.78;1.20;;;10.50;99.90;;;;;;6280512;22;20160;-91
2023/04/02 11:32:20;;;;;;;6.22;1.52;;;10.60;99.90;;;;;;6281561;22;20021;-91
2023/04/02 11:34:46;;;;;;;8.60;1.33;;;10.70;99.90;;;;;;6269155;22;20019;-89
2023/04/02 11:37:32;;;;;;;5.20;1.30;;;10.80;99.90;;;;;;6308453;22;20011;-92
2023/04/02 11:40:09;;;;;;;6.22;1.35;;;10.80;99.90;;;;;;6309021;22;20022;-91
2023/04/02 11:42:36;;;;;;;5.53;1.35;;;10.80;99.90;;;;;;6281675;22;20456;-91
2023/04/02 11:45:22;;;;;;;4.55;1.38;;;10.90;99.90;;;;;;6308712;22;20018;-92
2023/04/02 11:48:06;;;;;;;4.45;1.17;;;10.90;99.90;;;;;;6308747;22;20027;-90
2023/04/02 11:50:33;;;;;;;2.97;1.02;;;11.10;99.90;;;;;;6308457;22;20019;-91
2023/04/02 11:53:34;;;;;;;5.65;1.38;;;11.10;99.90;;;;;;6281984;22;20459;-91
2023/04/02 11:56:20;;;;;;;4.72;1.17;;;11.20;99.90;;;;;;6276126;22;20042;-91
2023/04/02 11:59:19;;;;;;;6.80;1.30;;;11.20;99.90;;;;;;6282683;22;20015;-94
2023/04/02 12:02:25;;;;;;;5.10;1.30;;;11.20;99.90;;;;;;6285828;22;20021;-94
2023/04/02 12:05:14;;;;;;;6.18;1.20;;;11.30;99.90;;;;;;6283008;22;20015;-94
2023/04/02 12:08:10;;;;;;;3.45;1.15;;;11.30;99.90;;;;;;6309104;22;20025;-93
2023/04/02 12:10:59;;;;;;;4.80;1.25;;;11.40;99.90;;;;;;6280752;22;20023;-93
2023/04/02 12:13:40;;;;;;;5.60;1.00;;;11.50;99.90;;;;;;6283284;22;20012;-93
2023/04/02 12:16:13;;;;;;;4.57;1.10;;;11.50;99.90;;;;;;6282171;22;20023;-94
2023/04/02 12:18:50;;;;;;;4.43;1.20;;;11.60;99.90;;;;;;6283180;22;20026;-93
2023/04/02 12:21:17;;;;;;;4.50;1.40;;;11.60;99.90;;;;;;6308696;22;20459;-92
2023/04/02 12:23:46;;;;;;;3.13;1.10;;;11.60;99.90;;;;;;6282386;22;20077;-92
2023/04/02 12:26:41;;;;;;;5.40;1.30;;;11.60;99.90;;;;;;6281619;22;20015;-95
2023/04/02 12:29:25;;;;;;;3.95;1.02;;;11.70;99.90;;;;;;6282413;22;20019;-96
2023/04/02 12:31:55;;;;;;;5.68;1.33;;;11.70;99.90;;;;;;6281590;22;20339;-93
2023/04/02 12:34:23;;;;;;;3.75;1.08;;;11.70;99.90;;;;;;6281922;22;20012;-93
2023/04/02 12:37:03;;;;;;;5.28;1.17;;;11.80;99.90;;;;;;6281089;22;20011;-90
2023/04/02 12:39:33;;;;;;;4.93;1.30;;;11.80;99.90;;;;;;6280180;22;20026;-91
2023/04/02 12:41:59;;;;;;;3.00;0.98;;;11.90;99.90;;;;;;6280291;22;20098;-89
2023/04/02 12:44:27;;;;;;;3.35;1.02;;;11.90;99.90;;;;;;6307911;22;20094;-92
2023/04/02 12:46:54;;;;;;;4.15;1.00;;;11.90;99.90;;;;;;6279880;22;20027;-92
2023/04/02 12:49:41;;;;;;;3.00;0.90;;;12.00;99.90;;;;;;6280168;22;20015;-89
2023/04/02 12:52:16;;;;;;;3.90;1.27;;;12.00;99.90;;;;;;6307477;22;20021;-88
2023/04/02 12:54:52;;;;;;;3.40;0.93;;;12.00;99.90;;;;;;6307392;22;20027;-89
2023/04/02 12:57:27;;;;;;;2.60;0.90;;;12.10;99.90;;;;;;6279719;22;20454;-90
2023/04/02 13:00:23;;;;;;;6.85;1.40;;;12.10;99.90;;;;;;6280781;22;20019;-92
2023/04/02 13:03:16;;;;;;;4.55;1.20;;;12.10;99.90;;;;;;6255105;22;20022;-93
2023/04/02 13:05:56;;;;;;;5.38;1.13;;;12.20;99.90;;;;;;6281354;22;20026;-94
2023/04/02 13:08:26;;;;;;;5.85;1.20;;;12.10;99.90;;;;;;6280264;22;20090;-91
2023/04/02 13:11:00;;;;;;;3.97;1.08;;;12.20;99.90;;;;;;6308763;22;20022;-92
2023/04/02 13:13:31;;;;;;;4.43;1.10;;;12.30;99.90;;;;;;6280741;22;20012;-92
2023/04/02 13:16:05;;;;;;;2.97;1.10;;;12.30;99.90;;;;;;6307068;22;20440;-91
2023/04/02 13:18:33;;;;;;;5.90;1.13;;;12.30;99.90;;;;;;6307900;22;20064;-90
2023/04/02 13:21:19;;;;;;;5.10;1.13;;;12.30;99.90;;;;;;6280714;22;20022;-90
2023/04/02 13:23:45;;;;;;;2.83;0.80;;;12.30;99.90;;;;;;6278504;22;20090;-91
2023/04/02 13:26:17;;;;;;;4.45;1.10;;;12.40;99.90;;;;;;6277720;22;20092;-95
2023/04/02 13:28:55;;;;;;;5.50;1.15;;;12.40;99.90;;;;;;6280977;22;20046;-95
2023/04/02 13:31:21;;;;;;;3.95;1.00;;;12.40;99.90;;;;;;6280797;22;20435;-94
2023/04/02 13:33:47;;;;;;;5.78;1.02;;;12.30;99.90;;;;;;6308831;22;20015;-94
2023/04/02 13:36:13;;;;;;;5.72;1.17;;;12.40;99.90;;;;;;6281099;22;20336;-93
2023/04/02 13:38:40;;;;;;;4.00;1.00;;;12.40;99.90;;;;;;6281472;22;20422;-92